Time;durP1;ratioP1;P1;durP2;ratioP2;P2;SDS_P1;SDS_P2;PMS_P1;PMS_P2;Temp;Humidity;BMP_temperature;BMP_pressure;BME280_temperature;BME280_humidity;BME280_pressure;Samples;Min_cycle;Max_cycle;Signal;HPM_P1;HPM_P2
2022/12/04 00:00:10;;;;;;;40.40;33.58;;;;;;;-0.10;100.00;101729.53;5145698;28;20034;-65
2022/12/04 00:02:41;;;;;;;39.95;36.05;;;;;;;-0.12;100.00;101728.06;5144723;28;20034;-65
2022/12/04 00:05:11;;;;;;;39.78;33.90;;;;;;;-0.17;100.00;101725.88;5145448;28;20078;-65
2022/12/04 00:07:42;;;;;;;49.88;37.35;;;;;;;-0.23;100.00;101718.56;5144184;28;20027;-65
2022/12/04 00:10:13;;;;;;;49.55;38.95;;;;;;;-0.38;100.00;101705.13;5145265;28;20102;-64
2022/12/04 00:12:43;;;;;;;48.03;39.55;;;;;;;-0.38;100.00;101705.13;5144768;28;20061;-63
2022/12/04 00:15:14;;;;;;;48.78;37.55;;;;;;;-0.44;100.00;101704.94;5145545;28;20030;-64
2022/12/04 00:17:47;;;;;;;47.88;36.40;;;;;;;-0.44;100.00;101708.44;5145275;28;20019;-64
2022/12/04 00:20:18;;;;;;;39.25;34.20;;;;;;;-0.47;100.00;101721.19;5144165;28;20035;-65
2022/12/04 00:22:49;;;;;;;44.33;37.28;;;;;;;-0.49;100.00;101723.19;5143050;28;20026;-63
2022/12/04 00:25:19;;;;;;;49.60;38.92;;;;;;;-0.51;100.00;101730.47;5145189;28;20023;-66
2022/12/04 00:27:49;;;;;;;42.05;36.67;;;;;;;-0.53;100.00;101725.31;5144978;28;20110;-66
2022/12/04 00:30:20;;;;;;;45.08;40.10;;;;;;;-0.49;100.00;101725.81;5144962;28;20034;-65
2022/12/04 00:32:50;;;;;;;48.72;37.78;;;;;;;-0.45;100.00;101729.81;5144401;28;20135;-65
2022/12/04 00:35:21;;;;;;;50.78;42.03;;;;;;;-0.44;100.00;101715.56;5144711;28;20026;-65
2022/12/04 00:37:51;;;;;;;41.47;37.28;;;;;;;-0.40;100.00;101719.56;5144776;28;20511;-65
2022/12/04 00:40:21;;;;;;;43.67;39.13;;;;;;;-0.39;100.00;101713.25;5144901;28;20035;-63
2022/12/04 00:42:52;;;;;;;44.65;39.72;;;;;;;-0.53;100.00;101700.63;5142925;28;20054;-63
2022/12/04 00:45:22;;;;;;;44.42;39.45;;;;;;;-0.41;100.00;101721.38;5144654;28;20023;-64
2022/12/04 00:47:53;;;;;;;45.47;41.05;;;;;;;-0.55;100.00;101691.97;5144385;28;20081;-66
2022/12/04 00:50:23;;;;;;;52.13;42.55;;;;;;;-0.33;100.00;101715.25;5144814;28;20027;-66
2022/12/04 00:52:55;;;;;;;45.85;40.95;;;;;;;-0.32;100.00;101721.41;5144019;28;20105;-65
2022/12/04 00:55:25;;;;;;;46.53;41.38;;;;;;;-0.32;100.00;101714.28;5143452;28;20034;-66
2022/12/04 00:57:55;;;;;;;40.97;35.60;;;;;;;-0.32;100.00;101710.78;5144531;28;20069;-64
2022/12/04 01:00:26;;;;;;;52.30;40.80;;;;;;;-0.32;100.00;101705.47;5144322;28;20029;-66
2022/12/04 01:02:56;;;;;;;51.92;43.72;;;;;;;-0.32;100.00;101711.63;5142689;28;20494;-66
2022/12/04 01:05:27;;;;;;;54.17;40.95;;;;;;;-0.44;100.00;101689.88;5144417;28;20419;-63
2022/12/04 01:07:57;;;;;;;42.88;38.50;;;;;;;-0.36;100.00;101711.09;5144536;28;20026;-64
2022/12/04 01:10:27;;;;;;;47.17;37.75;;;;;;;-0.32;100.00;101716.94;5144315;28;20050;-65
2022/12/04 01:12:58;;;;;;;48.45;40.22;;;;;;;-0.30;100.00;101728.22;5143892;28;20115;-66
2022/12/04 01:15:28;;;;;;;54.03;41.60;;;;;;;-0.31;100.00;101720.41;5226572;23;20047;-84
2022/12/04 01:17:59;;;;;;;51.28;41.05;;;;;;;-0.49;100.00;101686.88;5135459;29;20067;-83
2022/12/04 01:20:29;;;;;;;52.17;42.17;;;;;;;-0.64;100.00;101667.28;5135307;29;20095;-85
2022/12/04 01:23:00;;;;;;;45.22;40.45;;;;;;;-0.36;100.00;101707.63;5118281;28;20049;-84
2022/12/04 01:25:30;;;;;;;46.13;39.53;;;;;;;-0.26;100.00;101724.22;5118652;29;20023;-85
2022/12/04 01:28:01;;;;;;;47.17;38.38;;;;;;;-0.34;100.00;101705.63;5135947;29;20020;-85
2022/12/04 01:30:31;;;;;;;48.05;36.53;;;;;;;-0.43;100.00;101702.13;5135547;28;20027;-85
2022/12/04 01:33:02;;;;;;;48.40;39.08;;;;;;;-0.26;100.00;101718.91;5117746;28;20034;-84
2022/12/04 01:35:32;;;;;;;52.00;41.47;;;;;;;-0.45;100.00;101690.84;5136053;29;20054;-84
2022/12/04 01:38:03;;;;;;;43.75;38.20;;;;;;;-0.26;100.00;101721.56;5134245;29;20034;-84
2022/12/04 01:40:34;;;;;;;48.75;37.75;;;;;;;-0.25;100.00;101714.41;5135536;29;20111;-84
2022/12/04 01:43:05;;;;;;;51.80;38.72;;;;;;;-0.45;100.00;101677.59;5118075;28;20019;-83
2022/12/04 01:45:40;;;;;;;45.35;40.45;;;;;;;-0.23;100.00;101701.81;5135951;29;20030;-84
2022/12/04 01:48:38;;;;;;;46.47;40.17;;;;;;;-0.22;100.00;101709.63;5135500;29;20082;-83
2022/12/04 01:51:33;;;;;;;46.58;41.40;;;;;;;-0.22;100.00;101704.31;5136363;29;20027;-85
2022/12/04 01:54:09;;;;;;;45.70;38.70;;;;;;;-0.38;100.00;101683.91;5135440;28;20033;-84
2022/12/04 01:56:48;;;;;;;52.08;38.42;;;;;;;-0.67;100.00;101625.16;5118266;29;20055;-84
2022/12/04 01:59:23;;;;;;;48.90;41.17;;;;;;;-0.61;100.00;101639.59;5135743;29;20114;-84
2022/12/04 02:02:05;;;;;;;52.03;40.00;;;;;;;-0.55;100.00;101647.72;5135407;29;20300;-85
2022/12/04 02:04:37;;;;;;;44.42;38.08;;;;;;;-0.33;100.00;101682.59;5117918;29;20037;-83
2022/12/04 02:07:08;;;;;;;44.35;38.22;;;;;;;-0.57;100.00;101654.19;5118248;29;20016;-83
2022/12/04 02:09:40;;;;;;;48.33;40.80;;;;;;;-0.32;100.00;101687.72;5135034;29;20034;-85
2022/12/04 02:12:13;;;;;;;41.55;37.20;;;;;;;-0.24;100.00;101695.69;5117917;29;20521;-85
2022/12/04 02:15:09;;;;;;;45.17;40.05;;;;;;;-0.39;100.00;101670.81;5135405;28;20514;-86
2022/12/04 02:18:01;;;;;;;42.70;37.22;;;;;;;-0.23;100.00;101686.72;5134571;29;20490;-84
2022/12/04 02:20:42;;;;;;;46.22;39.25;;;;;;;-0.26;100.00;101686.22;5134711;29;20053;-84
2022/12/04 02:23:37;;;;;;;46.92;42.00;;;;;;;-0.21;100.00;101692.69;5134543;28;20066;-84
2022/12/04 02:26:20;;;;;;;46.33;37.50;;;;;;;-0.18;100.00;101704.81;5118372;29;20058;-85
2022/12/04 02:28:59;;;;;;;53.05;41.22;;;;;;;-0.21;100.00;101695.34;5134415;29;20038;-83
2022/12/04 02:31:35;;;;;;;48.33;38.60;;;;;;;-0.44;100.00;101658.03;5134553;29;20379;-85
2022/12/04 02:34:28;;;;;;;43.83;39.22;;;;;;;-0.16;100.00;101701.00;5117199;29;20483;-82
2022/12/04 02:37:07;;;;;;;41.08;36.53;;;;;;;-0.14;100.00;101701.66;5134477;29;20454;-84
2022/12/04 02:39:53;;;;;;;51.45;38.28;;;;;;;-0.29;100.00;101682.09;5134793;29;20034;-84
2022/12/04 02:42:34;;;;;;;43.40;37.03;;;;;;;-0.15;100.00;101694.69;5134838;28;20039;-84
2022/12/04 02:45:36;;;;;;;53.97;41.45;;;;;;;-0.19;100.00;101693.38;5137907;29;20023;-84
2022/12/04 02:48:07;;;;;;;51.70;41.58;;;;;;;-0.12;100.00;101691.72;5118352;29;20045;-88
2022/12/04 02:50:40;;;;;;;44.65;39.95;;;;;;;-0.11;100.00;101696.03;5138324;29;20051;-83
2022/12/04 02:53:26;;;;;;;47.55;40.35;;;;;;;-0.21;100.00;101674.13;5120536;28;20109;-84
2022/12/04 02:56:19;;;;;;;38.63;34.60;;;;;;;-0.40;100.00;101645.25;5120742;29;20074;-84
2022/12/04 02:58:57;;;;;;;57.05;44.78;;;;;;;-0.17;100.00;101682.59;5121355;29;20031;-85
2022/12/04 03:01:33;;;;;;;44.33;39.63;;;;;;;-0.34;100.00;101644.59;5138403;29;20100;-84
2022/12/04 03:04:13;;;;;;;44.25;39.50;;;;;;;-0.23;100.00;101665.50;5121226;29;20024;-84
2022/12/04 03:06:47;;;;;;;54.80;38.47;;;;;;;-0.17;100.00;101672.78;5138154;29;20019;-83
2022/12/04 03:09:27;;;;;;;42.25;37.08;;;;;;;-0.17;100.00;101677.28;5138279;29;20031;-85
2022/12/04 03:12:06;;;;;;;49.40;40.83;;;;;;;-0.11;100.00;101681.94;5137649;29;20058;-85
2022/12/04 03:14:43;;;;;;;47.53;40.17;;;;;;;-0.11;100.00;101681.94;5137382;28;20031;-84
2022/12/04 03:17:20;;;;;;;47.75;39.42;;;;;;;-0.21;100.00;101668.81;5120567;29;20030;-83
2022/12/04 03:19:57;;;;;;;47.55;40.45;;;;;;;-0.24;100.00;101661.19;5120941;29;20058;-85
2022/12/04 03:22:30;;;;;;;42.08;37.08;;;;;;;-0.11;100.00;101672.13;5137944;29;20031;-84
2022/12/04 03:25:04;;;;;;;46.08;38.13;;;;;;;-0.15;100.00;101673.47;5137575;28;20385;-85
2022/12/04 03:27:34;;;;;;;49.13;36.63;;;;;;;-0.10;100.00;101686.25;5120555;29;20063;-85
2022/12/04 03:30:13;;;;;;;45.65;39.72;;;;;;;-0.09;100.00;101685.25;5137953;29;20509;-84
2022/12/04 03:32:43;;;;;;;53.47;42.58;;;;;;;-0.10;100.00;101676.44;5137877;28;20039;-84
2022/12/04 03:35:32;;;;;;;51.40;38.75;;;;;;;-0.10;100.00;101675.63;5143235;29;20084;-84
2022/12/04 03:38:43;;;;;;;44.92;38.70;;;;;;;-0.09;100.00;101677.28;5128912;29;20041;-83
2022/12/04 03:41:45;;;;;;;45.33;39.28;;;;;;;-0.09;100.00;101671.97;5144127;29;20007;-83
2022/12/04 03:44:24;;;;;;;50.75;41.70;;;;;;;-0.14;100.00;101666.31;5143876;28;20082;-82
2022/12/04 03:47:07;;;;;;;40.88;36.38;;;;;;;-0.41;100.00;101633.81;5137327;29;20035;-85
2022/12/04 03:49:53;;;;;;;46.83;38.83;;;;;;;-0.24;100.00;101653.22;5120322;29;20023;-83
2022/12/04 03:52:46;;;;;;;45.58;40.72;;;;;;;-0.15;100.00;101664.66;5137034;29;20065;-84
2022/12/04 03:55:25;;;;;;;46.33;37.42;;;;;;;-0.10;100.00;101665.00;5136609;28;20042;-83
2022/12/04 03:58:01;;;;;;;51.10;42.60;;;;;;;-0.19;100.00;101658.03;5136146;29;20091;-84
2022/12/04 04:00:35;;;;;;;40.88;36.50;;;;;;;-0.12;100.00;101678.44;5136202;29;20042;-82
2022/12/04 04:03:13;;;;;;;44.15;36.08;;;;;;;-0.19;100.00;101666.00;5135510;28;20027;-83
2022/12/04 04:05:50;;;;;;;47.67;39.40;;;;;;;-0.12;100.00;101683.75;5141548;29;20027;-82
2022/12/04 04:08:32;;;;;;;45.03;40.28;;;;;;;-0.16;100.00;101660.34;5131803;29;20023;-82
2022/12/04 04:11:28;;;;;;;51.42;39.08;;;;;;;-0.11;100.00;101674.78;5130894;29;20042;-81
2022/12/04 04:26:01;;;;;;;43.75;37.55;;;;;;;-0.16;100.00;101660.34;5149048;29;20027;-81
2022/12/04 04:28:35;;;;;;;45.03;36.95;;;;;;;-0.24;100.00;101647.91;5145224;29;20011;-83
2022/12/04 04:31:29;;;;;;;44.92;35.40;;;;;;;-0.11;100.00;101668.66;5135468;29;20062;-83
2022/12/04 04:34:23;;;;;;;41.03;36.88;;;;;;;-0.11;100.00;101674.78;5135411;28;20031;-83
2022/12/04 04:37:03;;;;;;;42.42;37.75;;;;;;;-0.18;100.00;101651.72;5117856;29;20027;-84
2022/12/04 04:39:35;;;;;;;45.40;40.83;;;;;;;-0.11;100.00;101669.47;5120162;29;20031;-83
2022/12/04 04:42:24;;;;;;;42.47;36.80;;;;;;;-0.09;100.00;101667.50;5136910;29;20047;-83
2022/12/04 04:45:16;;;;;;;44.55;39.88;;;;;;;-0.11;100.00;101672.13;5145643;28;20070;-82
2022/12/04 04:48:22;;;;;;;41.08;36.75;;;;;;;-0.09;100.00;101666.66;5139960;29;20083;-82
2022/12/04 04:50:53;;;;;;;44.05;38.00;;;;;;;-0.38;100.00;101614.91;5115165;29;20062;-83
2022/12/04 04:53:38;;;;;;;41.83;37.47;;;;;;;-0.11;100.00;101664.16;5134471;28;20035;-83
2022/12/04 04:56:08;;;;;;;42.65;38.20;;;;;;;-0.06;100.00;101667.16;5117186;29;20037;-83
2022/12/04 04:58:40;;;;;;;43.25;37.38;;;;;;;-0.19;100.00;101650.91;5133027;29;20023;-82
2022/12/04 05:01:14;;;;;;;49.45;39.38;;;;;;;-0.17;100.00;101666.66;5116350;29;20031;-83
2022/12/04 05:03:44;;;;;;;51.58;39.47;;;;;;;-0.18;100.00;101665.81;5134041;28;20023;-82
2022/12/04 05:06:15;;;;;;;49.05;37.47;;;;;;;-0.13;100.00;101673.28;5116751;29;20034;-82
2022/12/04 05:08:48;;;;;;;39.55;35.38;;;;;;;-0.35;100.00;101630.50;5118322;29;20027;-83
2022/12/04 05:11:18;;;;;;;40.00;36.05;;;;;;;-0.13;100.00;101675.94;5135241;29;20023;-82
2022/12/04 05:13:48;;;;;;;44.25;38.33;;;;;;;-0.36;100.00;101633.31;5120348;29;20028;-83
2022/12/04 05:16:19;;;;;;;48.28;39.42;;;;;;;-0.28;100.00;101640.44;5121076;29;20027;-81
2022/12/04 05:21:40;;;;;;;46.38;41.88;;;;;;;-0.08;100.00;101674.47;5134460;29;20413;-84
2022/12/04 05:27:37;;;;;;;51.08;40.08;;;;;;;-0.40;100.00;101621.38;5133622;29;20027;-83
2022/12/04 05:30:10;;;;;;;46.90;37.13;;;;;;;-0.08;100.00;101669.16;5134032;29;20094;-84
2022/12/04 05:32:41;;;;;;;48.17;39.25;;;;;;;-0.31;100.00;101635.47;5116608;29;20035;-82
2022/12/04 05:35:11;;;;;;;43.42;38.83;;;;;;;-0.09;100.00;101671.97;5132827;28;20019;-82
2022/12/04 05:37:42;;;;;;;42.97;38.55;;;;;;;-0.18;100.00;101646.41;5133674;29;20074;-84
2022/12/04 05:40:12;;;;;;;46.45;41.70;;;;;;;-0.09;100.00;101672.81;5133916;29;20027;-82
2022/12/04 05:42:43;;;;;;;50.75;42.10;;;;;;;-0.19;100.00;101650.06;5134356;28;20030;-82
2022/12/04 05:45:13;;;;;;;45.75;41.50;;;;;;;-0.27;100.00;101629.66;5117291;29;20397;-82
2022/12/04 05:47:44;;;;;;;44.72;39.22;;;;;;;-0.42;100.00;101607.44;5117194;29;20016;-82
2022/12/04 05:50:14;;;;;;;46.22;40.95;;;;;;;-0.13;100.00;101660.03;5134115;29;20038;-80
2022/12/04 05:52:44;;;;;;;45.55;40.63;;;;;;;-0.32;100.00;101623.22;5142359;28;20027;-81
2022/12/04 05:55:15;;;;;;;45.47;39.63;;;;;;;-0.30;100.00;101623.88;5146912;29;20046;-82
2022/12/04 05:57:45;;;;;;;52.60;41.35;;;;;;;-0.26;100.00;101626.00;5146253;29;20027;-82
2022/12/04 06:00:16;;;;;;;50.20;40.20;;;;;;;-0.11;100.00;101664.16;5145095;29;20035;-81
2022/12/04 06:02:47;;;;;;;46.20;40.78;;;;;;;-0.36;100.00;101615.56;5124246;28;20028;-82
2022/12/04 06:05:17;;;;;;;48.70;43.67;;;;;;;-0.69;100.00;101558.19;5135540;29;20038;-82
2022/12/04 06:07:48;;;;;;;46.35;39.15;;;;;;;-0.11;100.00;101650.06;5117427;29;20058;-82
2022/12/04 06:10:18;;;;;;;43.42;38.80;;;;;;;-0.13;100.00;101644.94;5117909;29;20442;-83
2022/12/04 06:12:48;;;;;;;47.40;41.20;;;;;;;-0.16;100.00;101641.78;5134510;28;20034;-81
2022/12/04 06:15:19;;;;;;;47.08;40.50;;;;;;;-0.36;100.00;101612.94;5134061;29;20031;-82
2022/12/04 06:17:49;;;;;;;46.58;40.70;;;;;;;-0.16;100.00;101642.59;5137043;28;20066;-82
2022/12/04 06:20:20;;;;;;;45.80;40.35;;;;;;;-0.12;100.00;101651.91;5139332;29;20061;-83
2022/12/04 06:22:50;;;;;;;47.13;37.72;;;;;;;-0.35;100.00;101624.38;5141051;28;20019;-83
2022/12/04 06:25:21;;;;;;;43.97;39.30;;;;;;;-0.36;100.00;101617.41;5121164;29;20024;-82
2022/12/04 06:27:51;;;;;;;44.58;38.50;;;;;;;-0.44;100.00;101612.09;5140456;29;20023;-81
2022/12/04 06:30:21;;;;;;;44.20;39.45;;;;;;;-0.20;100.00;101643.94;5138340;29;20130;-81
2022/12/04 06:32:52;;;;;;;48.03;42.88;;;;;;;-0.14;100.00;101668.97;5138149;28;20170;-81
2022/12/04 06:35:22;;;;;;;44.63;39.97;;;;;;;-0.32;100.00;101633.81;5138349;29;20023;-81
2022/12/04 06:37:53;;;;;;;47.20;42.22;;;;;;;-0.22;100.00;101656.53;5138707;29;20055;-83
2022/12/04 06:40:23;;;;;;;45.00;38.22;;;;;;;-0.20;100.00;101657.19;5138615;29;20031;-81
2022/12/04 06:42:54;;;;;;;52.67;40.42;;;;;;;-0.20;100.00;101654.53;5137154;28;20028;-83
2022/12/04 06:45:24;;;;;;;45.97;40.78;;;;;;;-0.12;100.00;101673.13;5137615;29;20102;-82
2022/12/04 06:47:54;;;;;;;48.70;40.65;;;;;;;-0.13;100.00;101671.47;5137333;29;20560;-83
2022/12/04 06:50:25;;;;;;;42.90;36.97;;;;;;;-0.37;100.00;101631.66;5136105;29;20388;-83
2022/12/04 06:52:55;;;;;;;53.97;42.05;;;;;;;-0.41;100.00;101630.34;5119744;28;20034;-83
2022/12/04 06:55:25;;;;;;;49.47;43.95;;;;;;;-0.24;100.00;101657.69;5137509;29;20039;-82
2022/12/04 06:58:02;;;;;;;48.47;43.45;;;;;;;-0.11;100.00;101676.63;5119510;29;20019;-85
2022/12/04 07:01:26;;;;;;;48.80;41.72;;;;;;;-0.12;100.00;101683.75;5120005;29;20409;-82
2022/12/04 07:03:57;;;;;;;45.30;40.25;;;;;;;-0.10;100.00;101675.63;5118886;29;20047;-83
2022/12/04 07:06:31;;;;;;;47.20;41.13;;;;;;;-0.10;100.00;101678.28;5136983;29;20086;-83
2022/12/04 07:09:05;;;;;;;50.40;44.17;;;;;;;-0.17;100.00;101679.94;5119542;29;20034;-85
2022/12/04 07:11:37;;;;;;;50.08;44.72;;;;;;;-0.10;100.00;101670.31;5136978;29;20027;-84
2022/12/04 07:14:08;;;;;;;50.65;45.17;;;;;;;-0.30;100.00;101635.31;5143943;23;20102;-68
2022/12/04 07:16:40;;;;;;;51.20;43.45;;;;;;;-0.10;100.00;101660.53;5139995;23;20598;-63
2022/12/04 07:19:12;;;;;;;48.00;41.17;;;;;;;-0.10;100.00;101668.50;5126376;29;20368;-64
2022/12/04 07:21:43;;;;;;;51.30;43.05;;;;;;;-0.09;100.00;101679.94;5109420;29;20487;-64
2022/12/04 07:24:16;;;;;;;50.85;43.42;;;;;;;-0.10;100.00;101676.44;5125974;28;20038;-64
2022/12/04 07:26:46;;;;;;;46.85;39.85;;;;;;;-0.09;100.00;101685.25;5126171;29;20027;-64
2022/12/04 07:29:16;;;;;;;46.97;42.05;;;;;;;-0.08;100.00;101685.09;5126065;28;20027;-64
2022/12/04 07:31:47;;;;;;;50.22;44.90;;;;;;;-0.06;100.00;101687.56;5126743;29;20034;-64
2022/12/04 07:34:18;;;;;;;45.08;38.88;;;;;;;-0.03;100.00;101698.69;5126053;28;20078;-64
2022/12/04 07:36:48;;;;;;;54.67;44.00;;;;;;;-0.43;100.00;101633.16;5126268;29;20015;-65
2022/12/04 07:39:18;;;;;;;45.58;40.63;;;;;;;-0.02;100.00;101700.34;5126210;29;20069;-64
2022/12/04 07:41:49;;;;;;;49.00;41.05;;;;;;;-0.01;100.00;101702.00;5125921;29;20479;-64
2022/12/04 07:44:19;;;;;;;50.50;45.08;;;;;;;-0.02;100.00;101689.72;5126335;28;20051;-64
2022/12/04 07:46:50;;;;;;;46.80;41.80;;;;;;;-0.01;100.00;101693.22;5126674;29;20027;-63
2022/12/04 07:49:20;;;;;;;50.10;44.97;;;;;;;-0.06;100.00;101693.72;5126750;29;20035;-64
2022/12/04 07:51:50;;;;;;;48.15;43.08;;;;;;;0.00;100.00;101697.53;5126218;29;20051;-64
2022/12/04 07:54:21;;;;;;;53.50;42.10;;;;;;;0.02;100.00;101697.34;5126740;28;20047;-64
2022/12/04 07:56:51;;;;;;;54.67;40.55;;;;;;;0.03;100.00;101706.97;5126666;29;20027;-64
2022/12/04 07:59:21;;;;;;;48.13;43.20;;;;;;;0.06;100.00;101712.78;5126463;29;20609;-65
2022/12/04 08:01:52;;;;;;;46.67;41.42;;;;;;;-0.02;100.00;101697.69;5126102;29;20043;-64
2022/12/04 08:04:22;;;;;;;52.53;44.55;;;;;;;0.07;100.00;101708.28;5126190;28;20027;-64
2022/12/04 08:06:53;;;;;;;48.22;43.40;;;;;;;0.10;100.00;101713.28;5126611;29;20031;-65
2022/12/04 08:09:23;;;;;;;48.10;43.17;;;;;;;0.12;100.00;101720.09;5126299;29;20098;-64
2022/12/04 08:11:53;;;;;;;49.17;43.55;;;;;;;0.12;100.00;101719.25;5125505;29;20175;-63
2022/12/04 08:14:24;;;;;;;49.60;42.65;;;;;;;0.14;100.00;101718.09;5125580;29;20424;-65
2022/12/04 08:16:54;;;;;;;58.03;45.63;;;;;;;-0.02;100.00;101689.72;5124420;29;20431;-64
2022/12/04 08:19:24;;;;;;;54.05;46.42;;;;;;;0.17;100.00;101714.28;5107720;29;20052;-64
2022/12/04 08:21:55;;;;;;;56.13;43.20;;;;;;;0.19;100.00;101720.25;5103656;29;20395;-64
2022/12/04 08:24:25;;;;;;;54.88;43.70;;;;;;;0.18;100.00;101703.50;5110681;29;20031;-64
2022/12/04 08:26:56;;;;;;;55.72;47.28;;;;;;;0.23;100.00;101709.13;5116822;29;20086;-62
2022/12/04 08:29:26;;;;;;;52.95;47.25;;;;;;;0.26;100.00;101707.97;5122937;29;20031;-64
2022/12/04 08:31:57;;;;;;;52.30;46.55;;;;;;;0.31;100.00;101714.41;5124159;29;20054;-65
2022/12/04 08:34:27;;;;;;;49.53;44.08;;;;;;;0.32;100.00;101709.94;5124520;29;20023;-64
2022/12/04 08:36:58;;;;;;;50.80;43.80;;;;;;;0.35;100.00;101712.25;5124359;29;20034;-64
2022/12/04 08:39:28;;;;;;;49.10;43.80;;;;;;;0.40;100.00;101715.25;5124388;29;20431;-65
2022/12/04 08:41:59;;;;;;;59.03;47.13;;;;;;;0.45;100.00;101712.91;5123140;28;20365;-64
2022/12/04 08:44:29;;;;;;;57.20;44.08;;;;;;;0.55;100.00;101710.91;5124522;29;20435;-65
2022/12/04 08:46:59;;;;;;;47.42;42.35;;;;;;;0.59;100.00;101704.22;5124645;29;20106;-64
2022/12/04 08:49:30;;;;;;;47.13;41.90;;;;;;;0.68;100.00;101708.53;5124754;29;20034;-63
2022/12/04 08:52:00;;;;;;;51.03;45.30;;;;;;;0.65;100.00;101703.56;5112123;29;20077;-64
2022/12/04 08:54:31;;;;;;;58.03;44.17;;;;;;;0.75;100.00;101707.88;5108612;29;20027;-65
2022/12/04 08:57:02;;;;;;;48.28;43.20;;;;;;;0.77;100.00;101711.19;5086790;29;20032;-64
2022/12/04 08:59:32;;;;;;;50.03;42.35;;;;;;;0.82;100.00;101703.53;5118308;29;20451;-62
2022/12/04 09:02:02;;;;;;;57.75;45.58;;;;;;;0.88;100.00;101708.13;5116402;29;20136;-64
2022/12/04 09:04:33;;;;;;;49.35;43.05;;;;;;;0.94;100.00;101710.94;5118706;29;20051;-65
2022/12/04 09:07:04;;;;;;;51.08;45.08;;;;;;;0.99;100.00;101711.25;5123767;29;20051;-66
2022/12/04 09:09:34;;;;;;;48.92;43.83;;;;;;;1.02;100.00;101718.06;5123047;29;20028;-67
2022/12/04 09:12:05;;;;;;;54.83;44.05;;;;;;;0.90;100.00;101708.78;5123026;29;20042;-66
2022/12/04 09:14:35;;;;;;;48.47;40.72;;;;;;;0.91;100.00;101713.13;5123077;29;20027;-65
2022/12/04 09:17:05;;;;;;;48.72;41.97;;;;;;;0.89;100.00;101715.09;5123321;29;20123;-65
2022/12/04 09:19:36;;;;;;;44.08;39.42;;;;;;;0.90;100.00;101704.31;5123717;29;20460;-66
2022/12/04 09:22:06;;;;;;;51.78;41.05;;;;;;;0.98;100.00;101703.44;5123385;29;20107;-66
2022/12/04 09:24:37;;;;;;;46.78;42.08;;;;;;;1.04;100.00;101715.22;5121856;29;20563;-67
2022/12/04 09:27:07;;;;;;;37.53;33.78;;;;;;;1.04;100.00;101713.41;5123406;29;20055;-67
2022/12/04 09:29:38;;;;;;;39.60;35.42;;;;;;;0.95;100.00;101701.13;5123210;29;20023;-64
2022/12/04 09:32:08;;;;;;;41.75;37.47;;;;;;;0.95;100.00;101715.25;5123097;29;20027;-65
2022/12/04 09:34:38;;;;;;;52.28;40.83;;;;;;;1.01;100.00;101714.56;5123177;29;20108;-66
2022/12/04 09:37:09;;;;;;;40.45;36.25;;;;;;;1.01;100.00;101716.41;5123122;29;20023;-66
2022/12/04 09:39:40;;;;;;;41.33;36.90;;;;;;;1.00;100.00;101731.53;5123050;29;20062;-65
2022/12/04 09:42:41;;;;;;;38.10;34.15;;;;;;;0.95;100.00;101720.56;5105200;29;20019;-65
2022/12/04 09:45:19;;;;;;;40.38;35.85;;;;;;;0.95;100.00;101720.56;5122910;29;20035;-66
2022/12/04 09:47:55;;;;;;;36.40;32.58;;;;;;;0.96;100.00;101722.25;5123027;29;20030;-66
2022/12/04 09:50:35;;;;;;;34.70;31.15;;;;;;;0.90;100.00;101720.25;5122825;29;20161;-66
2022/12/04 09:53:18;;;;;;;38.88;33.08;;;;;;;0.97;100.00;101725.72;5121006;28;20110;-66
2022/12/04 09:56:00;;;;;;;37.97;33.95;;;;;;;0.96;100.00;101724.91;5121906;29;20027;-67
2022/12/04 09:58:51;;;;;;;38.35;31.38;;;;;;;1.00;100.00;101728.88;5122931;29;20031;-66
2022/12/04 10:01:25;;;;;;;35.90;32.40;;;;;;;0.98;100.00;101722.06;5123058;29;20034;-66
2022/12/04 10:03:56;;;;;;;39.95;34.17;;;;;;;1.05;100.00;101728.38;5122519;29;20023;-66
2022/12/04 10:06:34;;;;;;;34.97;31.42;;;;;;;1.07;100.00;101721.03;5122896;29;20550;-66
2022/12/04 10:09:43;;;;;;;34.72;31.20;;;;;;;1.11;100.00;101714.38;5122534;29;20109;-64
2022/12/04 10:12:25;;;;;;;35.80;32.10;;;;;;;1.16;100.00;101716.50;5092733;29;20043;-62
2022/12/04 10:15:19;;;;;;;33.05;29.95;;;;;;;1.16;100.00;101714.66;5123186;29;20657;-65
2022/12/04 10:18:05;;;;;;;34.97;31.27;;;;;;;1.25;100.00;101716.28;5122719;29;20031;-66
2022/12/04 10:20:54;;;;;;;31.40;28.50;;;;;;;1.32;100.00;101714.59;5122928;29;20516;-65
2022/12/04 10:23:49;;;;;;;34.75;31.38;;;;;;;1.39;100.00;101727.22;5120765;29;20031;-64
2022/12/04 10:26:26;;;;;;;33.50;28.90;;;;;;;1.43;100.00;101724.03;5122616;29;20110;-66
2022/12/04 10:29:01;;;;;;;31.98;27.38;;;;;;;1.43;100.00;101718.72;5122804;29;20034;-65
2022/12/04 10:31:35;;;;;;;28.27;25.40;;;;;;;1.42;100.00;101716.22;5122503;29;20023;-66
2022/12/04 10:34:30;;;;;;;30.77;27.30;;;;;;;1.45;100.00;101726.50;5122035;29;20432;-66
2022/12/04 10:37:10;;;;;;;29.98;27.17;;;;;;;1.40;100.00;101723.56;5122484;29;20037;-66
2022/12/04 10:39:51;;;;;;;29.77;26.77;;;;;;;1.36;100.00;101723.06;5123122;29;20023;-67
2022/12/04 10:42:48;;;;;;;28.95;25.75;;;;;;;1.26;100.00;101717.94;5121920;29;20031;-65
2022/12/04 10:45:21;;;;;;;27.73;25.20;;;;;;;1.21;100.00;101712.31;5122546;29;20021;-66
2022/12/04 10:47:52;;;;;;;25.42;23.15;;;;;;;1.21;100.00;101712.31;5105755;29;20042;-63
2022/12/04 10:50:23;;;;;;;28.35;25.33;;;;;;;1.16;100.00;101690.72;5122318;29;20027;-66
2022/12/04 10:52:55;;;;;;;26.02;23.50;;;;;;;1.22;100.00;101699.84;5121357;29;20082;-64
2022/12/04 10:55:31;;;;;;;25.35;22.95;;;;;;;1.23;100.00;101707.66;5105389;29;20088;-66
2022/12/04 10:58:02;;;;;;;24.95;22.88;;;;;;;1.15;100.00;101689.09;5122303;29;20086;-66
2022/12/04 11:00:34;;;;;;;26.92;24.35;;;;;;;1.25;100.00;101694.19;5122401;29;20028;-63
2022/12/04 11:03:21;;;;;;;27.17;24.42;;;;;;;1.17;100.00;101684.41;5121890;29;20444;-65
2022/12/04 11:05:57;;;;;;;29.02;25.73;;;;;;;1.22;100.00;101703.34;5125723;29;20098;-67
2022/12/04 11:08:40;;;;;;;29.55;26.90;;;;;;;1.21;100.00;101704.34;5125889;29;20022;-65
2022/12/04 11:11:13;;;;;;;35.03;28.00;;;;;;;1.15;100.00;101705.06;5127116;29;20030;-66
2022/12/04 11:13:43;;;;;;;32.90;29.58;;;;;;;1.12;100.00;101694.75;5125487;29;20062;-67
2022/12/04 11:16:40;;;;;;;28.15;25.20;;;;;;;1.11;100.00;101698.41;5125715;29;20428;-66
2022/12/04 11:19:21;;;;;;;32.20;29.08;;;;;;;1.07;100.00;101691.78;5126240;29;20350;-66
2022/12/04 11:21:55;;;;;;;33.03;29.95;;;;;;;1.04;100.00;101702.75;5125449;29;20027;-65
2022/12/04 11:24:30;;;;;;;30.33;27.60;;;;;;;1.06;100.00;101706.09;5124711;29;20558;-66
2022/12/04 11:27:03;;;;;;;34.05;30.52;;;;;;;1.02;100.00;101705.59;5123225;29;20081;-65
2022/12/04 11:29:43;;;;;;;31.75;28.73;;;;;;;0.98;100.00;101692.81;5125402;29;20480;-63
2022/12/04 11:32:25;;;;;;;34.47;30.90;;;;;;;0.57;100.00;101626.53;5124985;29;20166;-63
2022/12/04 11:35:03;;;;;;;33.30;30.08;;;;;;;1.05;100.00;101695.63;5125278;29;20081;-65
2022/12/04 11:37:33;;;;;;;29.67;26.95;;;;;;;1.07;100.00;101697.09;5125539;29;20027;-64
2022/12/04 11:40:13;;;;;;;34.40;31.05;;;;;;;1.02;100.00;101691.47;5125617;29;20038;-65
2022/12/04 11:43:01;;;;;;;29.73;26.70;;;;;;;0.94;100.00;101683.53;5124626;29;20403;-65
2022/12/04 11:45:32;;;;;;;36.88;30.63;;;;;;;1.04;100.00;101694.78;5125480;29;20447;-64
2022/12/04 11:48:13;;;;;;;32.15;28.90;;;;;;;1.00;100.00;101691.63;5125195;29;20027;-65
2022/12/04 11:50:59;;;;;;;34.80;31.13;;;;;;;0.99;100.00;101700.63;5124911;29;20039;-65
2022/12/04 11:53:56;;;;;;;34.65;31.13;;;;;;;1.01;100.00;101692.47;5124228;29;20034;-65
2022/12/04 11:56:41;;;;;;;35.40;31.88;;;;;;;1.02;100.00;101691.47;5125324;29;20047;-65
2022/12/04 11:59:29;;;;;;;37.50;33.67;;;;;;;1.00;100.00;101691.63;5124987;29;20041;-65